Time;durP1;ratioP1;P1;durP2;ratioP2;P2;SDS_P1;SDS_P2;PMS_P1;PMS_P2;Temp;Humidity;BMP_temperature;BMP_pressure;BME280_temperature;BME280_humidity;BME280_pressure;Samples;Min_cycle;Max_cycle;Signal;HPM_P1;HPM_P2
2023/07/05 00:00:09;;;;;;;2.40;2.20;;;16.40;99.90;;;;;;5052830;28;20837;-69
2023/07/05 00:02:36;;;;;;;2.73;2.27;;;16.50;99.90;;;;;;5052644;28;20471;-69
2023/07/05 00:05:05;;;;;;;3.03;1.90;;;16.60;99.90;;;;;;5053486;28;20462;-69
2023/07/05 00:07:31;;;;;;;2.20;2.00;;;16.60;99.90;;;;;;5051757;28;21024;-69
2023/07/05 00:09:58;;;;;;;2.13;1.83;;;16.70;99.90;;;;;;5053570;28;20845;-69
2023/07/05 00:12:25;;;;;;;1.87;1.77;;;16.80;99.90;;;;;;5052053;28;20474;-69
2023/07/05 00:14:52;;;;;;;3.07;2.70;;;16.90;99.90;;;;;;5053829;28;20462;-69
2023/07/05 00:17:18;;;;;;;5.20;2.63;;;17.00;99.90;;;;;;5052604;28;20508;-69
2023/07/05 00:19:50;;;;;;;1.77;1.60;;;17.10;99.90;;;;;;5053547;28;20465;-69
2023/07/05 00:22:18;;;;;;;2.50;2.17;;;17.20;99.90;;;;;;5053243;28;20467;-69
2023/07/05 00:24:45;;;;;;;2.50;2.30;;;17.20;99.90;;;;;;5053384;28;20463;-69
2023/07/05 00:27:13;;;;;;;3.07;2.67;;;17.30;99.90;;;;;;5052629;28;20471;-69
2023/07/05 00:29:40;;;;;;;3.10;2.30;;;17.30;99.90;;;;;;5045049;28;20943;-69
2023/07/05 00:32:07;;;;;;;2.30;2.10;;;17.30;99.90;;;;;;5053156;28;20467;-69
2023/07/05 00:34:34;;;;;;;2.10;1.90;;;17.30;99.90;;;;;;5052744;28;20459;-69
2023/07/05 00:37:00;;;;;;;2.10;1.90;;;17.40;99.90;;;;;;5052559;28;20870;-69
2023/07/05 00:39:28;;;;;;;2.23;1.87;;;17.40;99.90;;;;;;5052660;28;20471;-69
2023/07/05 00:41:55;;;;;;;3.30;2.13;;;17.50;99.90;;;;;;5053072;28;20463;-69
2023/07/05 00:44:22;;;;;;;3.67;2.33;;;17.50;99.90;;;;;;5052769;28;20869;-69
2023/07/05 00:46:53;;;;;;;2.17;1.97;;;17.50;99.90;;;;;;5052423;28;20457;-69
2023/07/05 00:49:24;;;;;;;3.17;2.50;;;17.50;99.90;;;;;;5052584;28;20468;-70
2023/07/05 00:51:55;;;;;;;2.27;2.03;;;17.50;99.90;;;;;;5052876;28;20467;-69
2023/07/05 00:54:26;;;;;;;2.50;1.87;;;17.50;99.90;;;;;;5052582;28;20959;-69
2023/07/05 00:56:57;;;;;;;2.63;1.87;;;17.40;99.90;;;;;;5052144;28;20478;-69
2023/07/05 00:59:27;;;;;;;2.27;2.07;;;17.40;99.90;;;;;;5061801;28;20462;-69
2023/07/05 01:01:54;;;;;;;3.60;3.30;;;17.40;99.90;;;;;;5072297;28;20464;-69
2023/07/05 01:04:21;;;;;;;2.43;2.23;;;17.40;99.90;;;;;;5071262;28;20487;-69
2023/07/05 01:06:48;;;;;;;2.90;2.00;;;17.40;99.90;;;;;;5071869;28;20458;-69
2023/07/05 01:09:14;;;;;;;3.93;1.83;;;17.40;99.90;;;;;;5072576;28;20482;-69
2023/07/05 01:11:51;;;;;;;2.50;2.30;;;17.40;99.90;;;;;;5071965;28;20467;-69
2023/07/05 01:14:27;;;;;;;2.10;1.90;;;17.40;99.90;;;;;;5072112;28;20458;-69
2023/07/05 01:17:04;;;;;;;2.70;2.00;;;17.40;99.90;;;;;;5071849;28;20854;-69
2023/07/05 01:19:56;;;;;;;2.50;2.30;;;17.40;99.90;;;;;;5072084;28;20459;-69
2023/07/05 01:22:51;;;;;;;2.27;2.07;;;17.50;99.90;;;;;;5071922;28;20462;-69
2023/07/05 01:25:36;;;;;;;2.13;1.63;;;17.50;99.90;;;;;;5071849;28;20872;-69
2023/07/05 01:28:30;;;;;;;2.30;2.07;;;17.50;99.90;;;;;;5072003;28;20482;-69
2023/07/05 01:31:15;;;;;;;2.83;2.03;;;17.50;99.90;;;;;;5072389;28;20466;-69
2023/07/05 01:33:51;;;;;;;3.70;2.20;;;17.50;99.90;;;;;;5071585;28;20464;-69
2023/07/05 01:36:19;;;;;;;2.67;2.20;;;17.50;99.90;;;;;;5071267;28;20490;-69
2023/07/05 01:38:46;;;;;;;2.33;2.00;;;17.40;99.90;;;;;;5071522;28;20849;-69
2023/07/05 01:41:12;;;;;;;2.00;1.80;;;17.40;99.90;;;;;;5071812;28;20462;-69
2023/07/05 01:43:42;;;;;;;2.33;2.13;;;17.40;99.90;;;;;;5071502;28;20867;-69
2023/07/05 01:46:23;;;;;;;1.80;1.70;;;17.40;99.90;;;;;;5071727;28;20462;-69
2023/07/05 01:49:11;;;;;;;2.20;1.80;;;17.30;99.90;;;;;;5071515;28;20483;-69
2023/07/05 01:51:44;;;;;;;2.23;1.63;;;17.30;99.90;;;;;;5068053;28;20464;-69
2023/07/05 01:54:15;;;;;;;2.30;2.00;;;17.30;99.90;;;;;;5071721;28;20458;-69
2023/07/05 01:56:51;;;;;;;2.30;1.93;;;17.30;99.90;;;;;;5070531;28;21086;-69
2023/07/05 01:59:22;;;;;;;3.37;2.27;;;17.20;99.90;;;;;;5071554;28;20466;-69
2023/07/05 02:04:50;;;;;;;1.97;1.80;;;17.20;99.90;;;;;;5693651;22;20492;-70
2023/07/05 02:07:17;;;;;;;2.83;1.90;;;17.20;99.90;;;;;;4995504;28;20569;-70
2023/07/05 02:09:45;;;;;;;3.13;2.07;;;17.20;99.90;;;;;;5150718;23;20497;-69
2023/07/05 02:12:11;;;;;;;2.37;2.03;;;17.20;99.90;;;;;;5011488;28;20470;-69
2023/07/05 02:14:38;;;;;;;2.00;1.80;;;17.20;99.90;;;;;;5011068;28;20461;-69
2023/07/05 02:17:05;;;;;;;3.07;1.90;;;17.20;99.90;;;;;;5027600;23;20515;-90
2023/07/05 02:19:32;;;;;;;2.40;1.80;;;17.20;99.90;;;;;;5030160;23;20528;-70
2023/07/05 02:22:00;;;;;;;1.93;1.73;;;17.20;99.90;;;;;;5010559;28;20473;-69
2023/07/05 02:24:26;;;;;;;2.73;1.93;;;17.20;99.90;;;;;;5010841;28;20462;-69
2023/07/05 02:26:54;;;;;;;3.53;2.57;;;17.30;99.90;;;;;;5011060;28;20466;-69
2023/07/05 02:29:21;;;;;;;2.03;1.83;;;17.30;99.90;;;;;;5011347;28;20498;-70
2023/07/05 02:31:48;;;;;;;1.87;1.57;;;17.30;99.90;;;;;;5011203;28;20464;-69
2023/07/05 02:34:15;;;;;;;1.70;1.60;;;17.20;99.90;;;;;;5010557;28;20484;-69
2023/07/05 02:36:42;;;;;;;1.67;1.57;;;17.30;99.90;;;;;;5011014;28;20485;-69
2023/07/05 02:39:10;;;;;;;1.63;1.53;;;17.30;99.90;;;;;;5010981;28;20488;-69
2023/07/05 02:41:37;;;;;;;1.70;1.53;;;17.30;99.90;;;;;;5011289;28;20466;-69
2023/07/05 02:44:04;;;;;;;1.57;1.30;;;17.40;99.90;;;;;;5010148;28;20472;-68
2023/07/05 02:46:31;;;;;;;4.53;1.70;;;17.40;99.90;;;;;;5011176;28;20466;-69
2023/07/05 02:48:58;;;;;;;1.70;1.60;;;17.40;99.90;;;;;;5010665;28;20552;-68
2023/07/05 02:51:26;;;;;;;1.53;1.43;;;17.40;99.90;;;;;;5011139;28;20832;-69
2023/07/05 02:53:53;;;;;;;1.57;1.47;;;17.50;99.90;;;;;;5010180;28;20464;-70
2023/07/05 02:56:21;;;;;;;1.93;1.83;;;17.50;99.90;;;;;;5010911;28;20488;-69
2023/07/05 02:58:48;;;;;;;1.50;1.23;;;17.50;99.90;;;;;;5010710;28;20483;-69
2023/07/05 03:01:15;;;;;;;1.77;1.20;;;17.50;99.90;;;;;;5010725;28;20473;-69
2023/07/05 03:03:42;;;;;;;1.60;1.50;;;17.50;99.90;;;;;;5010065;28;20461;-68
2023/07/05 03:06:08;;;;;;;1.23;1.13;;;17.50;99.90;;;;;;5002839;28;20851;-68
2023/07/05 03:08:35;;;;;;;2.10;1.90;;;17.60;99.90;;;;;;5010869;28;20494;-69
2023/07/05 03:11:02;;;;;;;1.90;1.40;;;17.60;99.90;;;;;;5010470;28;20461;-69
2023/07/05 03:13:32;;;;;;;2.17;1.53;;;17.60;99.90;;;;;;5010210;28;20468;-69
2023/07/05 03:15:59;;;;;;;1.63;1.53;;;17.60;99.90;;;;;;5010314;28;20464;-69
2023/07/05 03:18:27;;;;;;;1.83;1.60;;;17.60;99.90;;;;;;5010266;28;20828;-69
2023/07/05 03:20:54;;;;;;;3.07;1.37;;;17.60;99.90;;;;;;5010391;28;20465;-69
2023/07/05 03:23:22;;;;;;;1.80;1.70;;;17.60;99.90;;;;;;5009906;28;20466;-69
2023/07/05 03:25:56;;;;;;;2.40;1.27;;;17.70;99.90;;;;;;5010379;28;20469;-70
2023/07/05 03:28:23;;;;;;;2.97;2.00;;;17.70;99.90;;;;;;5010460;28;20485;-69
2023/07/05 03:30:56;;;;;;;1.67;1.57;;;17.60;99.90;;;;;;5009950;28;20620;-68
2023/07/05 03:33:24;;;;;;;2.03;1.40;;;17.60;99.90;;;;;;5009878;28;20952;-70
2023/07/05 03:35:55;;;;;;;2.13;1.67;;;17.60;99.90;;;;;;5009781;28;20834;-68
2023/07/05 03:38:21;;;;;;;1.40;1.30;;;17.60;99.90;;;;;;5009788;28;20572;-68
2023/07/05 03:40:57;;;;;;;2.30;1.80;;;17.60;99.90;;;;;;5009715;28;20469;-67
2023/07/05 03:43:24;;;;;;;2.37;2.00;;;17.60;99.90;;;;;;5007600;28;20204;-68
2023/07/05 03:45:51;;;;;;;2.50;1.83;;;17.50;99.90;;;;;;5009439;28;20979;-68
2023/07/05 03:48:20;;;;;;;1.57;1.47;;;17.50;99.90;;;;;;5009644;28;20834;-68
2023/07/05 03:50:47;;;;;;;1.57;1.47;;;17.50;99.90;;;;;;5009849;28;20468;-68
2023/07/05 03:53:14;;;;;;;2.63;1.60;;;17.50;99.90;;;;;;5009726;28;20469;-68
2023/07/05 03:55:41;;;;;;;2.23;1.70;;;17.50;99.90;;;;;;5009990;28;20462;-67
2023/07/05 03:58:08;;;;;;;1.87;1.63;;;17.50;99.90;;;;;;5009588;28;20490;-67
2023/07/05 04:00:34;;;;;;;1.70;1.50;;;17.50;99.90;;;;;;5009829;28;20480;-68
2023/07/05 04:03:01;;;;;;;2.43;1.83;;;17.40;99.90;;;;;;5008870;28;20473;-68
2023/07/05 04:05:29;;;;;;;2.00;1.50;;;17.40;99.90;;;;;;5009673;28;20461;-67
2023/07/05 04:07:56;;;;;;;1.67;1.40;;;17.40;99.90;;;;;;5010847;28;20602;-67
2023/07/05 04:10:22;;;;;;;1.90;1.67;;;17.30;99.90;;;;;;5025133;28;20476;-67
2023/07/05 04:12:50;;;;;;;2.03;1.60;;;17.30;99.90;;;;;;5009275;28;20469;-67
2023/07/05 04:15:17;;;;;;;2.27;1.80;;;17.30;99.90;;;;;;5009369;28;20829;-67
2023/07/05 04:17:43;;;;;;;1.93;1.73;;;17.30;99.90;;;;;;5011415;28;20488;-67
2023/07/05 04:20:11;;;;;;;1.87;1.73;;;17.30;99.90;;;;;;5009182;28;20468;-66
2023/07/05 04:22:40;;;;;;;1.70;1.50;;;17.30;99.90;;;;;;5009447;28;20517;-68
2023/07/05 04:25:08;;;;;;;2.57;2.00;;;17.30;99.90;;;;;;5007734;28;20488;-68
2023/07/05 04:27:35;;;;;;;2.43;2.00;;;17.30;99.90;;;;;;5009663;28;20485;-68
2023/07/05 04:30:03;;;;;;;2.90;1.60;;;17.30;99.90;;;;;;5009185;28;20885;-67
2023/07/05 04:32:30;;;;;;;1.60;1.30;;;17.30;99.90;;;;;;5009877;28;20945;-67
2023/07/05 04:34:56;;;;;;;2.07;1.87;;;17.30;99.90;;;;;;5009028;28;20472;-68
2023/07/05 04:37:24;;;;;;;1.83;1.60;;;17.30;99.90;;;;;;5008609;28;20866;-67
2023/07/05 04:39:52;;;;;;;1.70;1.27;;;17.30;99.90;;;;;;5010362;28;20956;-68
2023/07/05 04:42:18;;;;;;;1.50;1.40;;;17.30;99.90;;;;;;5013379;28;20554;-68
2023/07/05 04:44:45;;;;;;;2.27;1.90;;;17.20;99.90;;;;;;5012761;28;20465;-68
2023/07/05 04:47:12;;;;;;;1.50;1.30;;;17.20;99.90;;;;;;5004916;28;20473;-67
2023/07/05 04:49:38;;;;;;;1.73;1.60;;;17.20;99.90;;;;;;5013232;28;20864;-67
2023/07/05 04:52:06;;;;;;;1.93;1.70;;;17.20;99.90;;;;;;5012713;28;20460;-68
2023/07/05 04:54:33;;;;;;;2.00;1.70;;;17.20;99.90;;;;;;5012805;28;20471;-68
2023/07/05 04:57:01;;;;;;;2.47;1.60;;;17.20;99.90;;;;;;5012691;28;20489;-68
2023/07/05 04:59:29;;;;;;;1.53;1.40;;;17.10;99.90;;;;;;5013164;28;20466;-68
2023/07/05 05:01:56;;;;;;;1.43;1.30;;;17.10;99.90;;;;;;5012892;28;20489;-67
2023/07/05 05:04:22;;;;;;;2.30;1.80;;;17.10;99.90;;;;;;5012246;28;20815;-67
2023/07/05 05:06:49;;;;;;;2.00;1.43;;;17.20;99.90;;;;;;5012673;28;20471;-68
2023/07/05 05:09:17;;;;;;;1.70;1.60;;;17.20;99.90;;;;;;5012725;28;20462;-67
2023/07/05 05:11:43;;;;;;;2.50;1.83;;;17.20;99.90;;;;;;5012826;28;20462;-67
2023/07/05 05:14:11;;;;;;;2.60;2.40;;;17.20;99.90;;;;;;5011674;28;20470;-68
2023/07/05 05:16:38;;;;;;;2.53;1.43;;;17.30;99.90;;;;;;5012737;28;20872;-67
2023/07/05 05:19:05;;;;;;;2.10;1.57;;;17.30;99.90;;;;;;5012079;28;20493;-67
2023/07/05 05:21:32;;;;;;;1.53;1.40;;;17.30;99.90;;;;;;5026709;28;20464;-67
2023/07/05 05:23:58;;;;;;;1.57;1.47;;;17.30;99.90;;;;;;5031524;28;20469;-68
2023/07/05 05:26:25;;;;;;;2.27;1.43;;;17.40;99.90;;;;;;5032142;28;21030;-68
2023/07/05 05:28:52;;;;;;;2.07;1.80;;;17.40;99.90;;;;;;5031903;28;20476;-66
2023/07/05 05:31:20;;;;;;;1.57;1.47;;;17.50;99.90;;;;;;5031863;28;20468;-68
2023/07/05 05:33:47;;;;;;;2.03;1.40;;;17.60;99.90;;;;;;5031651;28;20878;-67
2023/07/05 05:36:15;;;;;;;2.07;1.67;;;17.60;99.90;;;;;;5031970;28;20458;-67
2023/07/05 05:38:41;;;;;;;2.00;1.70;;;17.60;99.90;;;;;;5031981;28;20488;-67
2023/07/05 05:41:10;;;;;;;3.00;1.50;;;17.50;99.90;;;;;;5031792;28;20468;-67
2023/07/05 05:43:37;;;;;;;2.13;1.70;;;17.50;99.90;;;;;;5031219;28;20992;-66
2023/07/05 05:46:04;;;;;;;3.20;1.47;;;17.60;99.90;;;;;;5031602;28;20473;-67
2023/07/05 05:48:32;;;;;;;2.37;1.60;;;17.60;99.90;;;;;;5031807;28;20477;-67
2023/07/05 05:50:59;;;;;;;1.73;1.60;;;17.70;99.90;;;;;;5031431;28;20466;-66
2023/07/05 05:53:26;;;;;;;2.13;1.80;;;17.80;99.90;;;;;;5031088;28;20474;-67
2023/07/05 05:55:52;;;;;;;1.87;1.73;;;17.90;99.90;;;;;;5031734;28;20462;-67
2023/07/05 05:58:19;;;;;;;1.67;1.47;;;18.00;99.90;;;;;;5031335;28;20893;-67
2023/07/05 06:00:46;;;;;;;1.70;1.30;;;18.10;99.90;;;;;;5031818;28;20557;-67
2023/07/05 06:03:13;;;;;;;2.10;1.90;;;18.20;99.90;;;;;;5030585;28;20469;-67
2023/07/05 06:05:42;;;;;;;1.63;1.53;;;18.30;99.90;;;;;;5031694;28;20472;-66
2023/07/05 06:08:09;;;;;;;2.30;1.83;;;18.30;99.90;;;;;;5031413;28;20565;-67
2023/07/05 06:10:35;;;;;;;1.93;1.60;;;18.40;99.90;;;;;;5031578;28;20467;-67
2023/07/05 06:13:02;;;;;;;2.37;1.70;;;18.40;99.90;;;;;;5030441;28;20466;-67
2023/07/05 06:15:29;;;;;;;1.63;1.53;;;18.50;99.90;;;;;;5028365;28;20466;-67
2023/07/05 06:17:55;;;;;;;3.90;1.57;;;18.50;99.90;;;;;;5011009;28;20490;-67
2023/07/05 06:20:23;;;;;;;1.93;1.73;;;18.50;99.90;;;;;;5011270;28;20995;-69
2023/07/05 06:22:51;;;;;;;3.83;1.70;;;18.60;99.90;;;;;;5010904;28;20501;-69
2023/07/05 06:25:18;;;;;;;2.43;2.07;;;18.60;99.90;;;;;;5003422;28;20461;-69
2023/07/05 06:27:45;;;;;;;1.60;1.40;;;18.70;99.90;;;;;;5011218;28;20491;-68
2023/07/05 06:30:12;;;;;;;2.00;1.80;;;18.80;99.90;;;;;;5010954;28;20823;-69
2023/07/05 06:32:39;;;;;;;4.80;1.87;;;18.80;99.90;;;;;;5011330;28;20465;-69
2023/07/05 06:35:07;;;;;;;2.27;1.90;;;19.00;99.90;;;;;;5020369;28;20465;-69
2023/07/05 06:37:34;;;;;;;1.57;1.47;;;19.10;99.90;;;;;;5030575;28;20493;-69
2023/07/05 06:40:03;;;;;;;2.07;1.70;;;19.30;99.90;;;;;;5030752;28;20461;-69
2023/07/05 06:42:29;;;;;;;1.87;1.53;;;19.40;99.90;;;;;;5025310;28;20472;-68
2023/07/05 06:44:56;;;;;;;2.53;2.07;;;19.50;99.90;;;;;;5010206;28;20462;-69
2023/07/05 06:47:23;;;;;;;1.80;1.70;;;19.50;99.90;;;;;;5010582;28;21008;-69
2023/07/05 06:49:50;;;;;;;2.73;1.60;;;19.30;99.90;;;;;;5010922;28;20491;-68
2023/07/05 06:52:17;;;;;;;1.73;1.63;;;19.20;99.90;;;;;;5002671;28;20475;-69
2023/07/05 06:54:44;;;;;;;2.20;2.00;;;19.00;99.90;;;;;;5010392;28;20462;-69
2023/07/05 06:57:12;;;;;;;3.80;2.10;;;18.80;99.90;;;;;;5010252;28;21028;-68
2023/07/05 06:59:39;;;;;;;2.43;2.03;;;18.70;99.90;;;;;;5010871;28;20463;-69
2023/07/05 07:02:06;;;;;;;3.03;2.03;;;18.40;99.90;;;;;;5010404;28;20478;-68
2023/07/05 07:04:33;;;;;;;1.93;1.70;;;18.30;99.90;;;;;;5009861;28;20465;-69
2023/07/05 07:06:59;;;;;;;3.30;2.20;;;18.20;99.90;;;;;;5010408;28;20952;-69
2023/07/05 07:09:26;;;;;;;2.30;1.80;;;18.10;99.90;;;;;;5010423;28;20466;-69
2023/07/05 07:11:53;;;;;;;2.23;2.03;;;18.10;99.90;;;;;;5010352;28;20462;-69
2023/07/05 07:14:21;;;;;;;1.97;1.77;;;18.10;99.90;;;;;;5009901;28;20464;-69
2023/07/05 07:16:48;;;;;;;2.47;1.60;;;18.00;99.90;;;;;;5010335;28;20525;-70
2023/07/05 07:19:14;;;;;;;3.00;2.00;;;18.00;99.90;;;;;;5005790;28;20486;-69
2023/07/05 07:21:41;;;;;;;2.80;1.83;;;18.00;99.90;;;;;;5010107;28;20454;-69
2023/07/05 07:24:09;;;;;;;2.57;1.93;;;18.00;99.90;;;;;;5009310;28;20980;-69
2023/07/05 07:26:36;;;;;;;2.47;1.90;;;18.00;99.90;;;;;;5009781;28;20471;-68
2023/07/05 07:29:04;;;;;;;2.53;1.73;;;18.10;99.90;;;;;;5009005;28;20478;-69
2023/07/05 07:31:33;;;;;;;2.00;1.50;;;18.10;99.90;;;;;;5010173;28;20467;-69
2023/07/05 07:34:02;;;;;;;2.33;1.90;;;18.20;99.90;;;;;;5009426;28;20481;-69
2023/07/05 07:36:30;;;;;;;2.80;1.60;;;18.20;99.90;;;;;;5010066;28;20470;-69
2023/07/05 07:38:58;;;;;;;3.27;1.53;;;18.30;99.90;;;;;;5018645;28;20489;-68
2023/07/05 07:41:26;;;;;;;2.60;1.30;;;18.40;99.90;;;;;;5029114;28;20466;-70
2023/07/05 07:43:55;;;;;;;1.20;1.10;;;18.40;99.90;;;;;;5029300;28;20472;-69
2023/07/05 07:46:23;;;;;;;1.60;1.40;;;18.40;99.90;;;;;;5002204;28;20477;-70
2023/07/05 07:48:54;;;;;;;2.33;1.60;;;18.50;99.90;;;;;;5009624;28;20481;-69
2023/07/05 07:51:22;;;;;;;2.27;1.60;;;18.50;99.90;;;;;;5010054;28;20472;-69
2023/07/05 07:53:50;;;;;;;1.90;1.50;;;18.40;99.90;;;;;;5008947;28;20467;-70
2023/07/05 07:56:19;;;;;;;1.53;1.43;;;18.30;99.90;;;;;;5009401;28;20459;-69
2023/07/05 07:58:49;;;;;;;1.60;1.50;;;18.30;99.90;;;;;;5009661;28;20490;-69
2023/07/05 08:01:17;;;;;;;2.07;1.40;;;18.30;99.90;;;;;;5021345;28;20461;-68
2023/07/05 08:03:44;;;;;;;1.40;1.30;;;18.20;99.90;;;;;;5028644;28;20469;-69
2023/07/05 08:06:12;;;;;;;2.17;1.50;;;18.20;99.90;;;;;;5028978;28;20879;-69
2023/07/05 08:08:40;;;;;;;1.60;1.23;;;18.20;99.90;;;;;;5029369;28;20493;-69
2023/07/05 08:11:08;;;;;;;1.97;1.40;;;18.20;99.90;;;;;;5027608;28;20461;-69
2023/07/05 08:13:36;;;;;;;4.80;1.77;;;18.10;99.90;;;;;;5008939;28;20494;-70
2023/07/05 08:16:03;;;;;;;1.40;1.27;;;18.10;99.90;;;;;;5012348;28;20462;-70
2023/07/05 08:18:31;;;;;;;1.40;1.30;;;18.10;99.90;;;;;;5012574;28;20491;-69
2023/07/05 08:20:57;;;;;;;1.80;1.70;;;18.00;99.90;;;;;;5012320;28;20470;-69
2023/07/05 08:23:25;;;;;;;2.13;1.60;;;18.00;99.90;;;;;;5012066;28;20469;-69
2023/07/05 08:25:55;;;;;;;2.23;1.60;;;17.90;99.90;;;;;;5012127;28;20470;-69
2023/07/05 08:28:22;;;;;;;3.17;1.40;;;17.90;99.90;;;;;;5012428;28;20512;-69
2023/07/05 08:30:54;;;;;;;3.67;1.60;;;17.80;99.90;;;;;;5012059;28;20473;-69
2023/07/05 08:33:21;;;;;;;1.37;1.27;;;17.80;99.90;;;;;;5011741;28;20509;-68
2023/07/05 08:35:48;;;;;;;1.60;1.40;;;17.70;99.90;;;;;;5012162;28;20495;-68
2023/07/05 08:38:18;;;;;;;1.43;1.30;;;17.70;99.90;;;;;;5012100;28;20496;-69
2023/07/05 08:40:53;;;;;;;1.70;1.33;;;17.60;99.90;;;;;;5027232;28;20818;-69
2023/07/05 08:43:32;;;;;;;1.57;1.27;;;17.60;99.90;;;;;;5030970;28;20948;-69
2023/07/05 08:46:05;;;;;;;1.33;1.23;;;17.70;99.90;;;;;;5031621;28;20527;-69
2023/07/05 08:48:34;;;;;;;2.03;1.40;;;17.70;99.90;;;;;;5031697;28;20484;-70
2023/07/05 08:51:02;;;;;;;1.47;1.20;;;17.70;99.90;;;;;;5032018;28;20464;-69
2023/07/05 08:53:30;;;;;;;1.33;1.10;;;17.70;99.90;;;;;;5030318;28;20474;-68
2023/07/05 08:56:04;;;;;;;2.43;1.60;;;17.70;99.90;;;;;;5032338;28;20469;-68
2023/07/05 08:58:40;;;;;;;2.50;1.63;;;17.80;99.90;;;;;;5032705;28;20483;-69
2023/07/05 09:01:17;;;;;;;1.63;1.53;;;17.80;99.90;;;;;;5032902;28;21017;-68
2023/07/05 09:03:44;;;;;;;1.70;1.50;;;17.80;99.90;;;;;;5032290;28;20464;-68
2023/07/05 09:06:24;;;;;;;2.17;1.47;;;17.80;99.90;;;;;;5032746;28;20473;-68
2023/07/05 09:09:01;;;;;;;1.40;1.30;;;17.90;99.90;;;;;;5032535;28;20860;-68
2023/07/05 09:11:40;;;;;;;1.60;1.30;;;18.10;99.90;;;;;;5032774;28;20483;-68
2023/07/05 09:14:17;;;;;;;1.87;1.50;;;18.40;99.90;;;;;;5032152;28;20466;-70
2023/07/05 09:16:50;;;;;;;1.73;1.50;;;18.60;99.90;;;;;;5032728;28;20491;-70
2023/07/05 09:19:27;;;;;;;1.77;1.50;;;18.80;99.90;;;;;;5032518;28;21014;-70
2023/07/05 09:22:01;;;;;;;1.97;1.80;;;18.90;99.90;;;;;;5032505;28;20473;-70
2023/07/05 09:24:32;;;;;;;1.60;1.50;;;18.90;99.90;;;;;;5032046;28;20471;-69
2023/07/05 09:27:06;;;;;;;3.10;1.50;;;19.00;99.90;;;;;;5031744;28;20974;-69
2023/07/05 09:29:36;;;;;;;1.83;1.50;;;19.20;99.90;;;;;;5032411;28;20946;-69
2023/07/05 09:32:10;;;;;;;1.80;1.70;;;19.40;99.90;;;;;;5032187;28;20469;-68
2023/07/05 09:34:40;;;;;;;2.37;2.17;;;19.40;99.90;;;;;;5031837;28;20490;-69
2023/07/05 09:37:15;;;;;;;2.27;1.90;;;19.50;99.90;;;;;;5032127;28;20485;-69
2023/07/05 09:39:50;;;;;;;1.80;1.67;;;19.60;99.90;;;;;;5031933;28;20480;-69
2023/07/05 09:42:28;;;;;;;2.03;1.90;;;19.80;99.90;;;;;;5032154;28;20467;-69
2023/07/05 09:44:54;;;;;;;3.40;1.60;;;20.00;99.90;;;;;;5031527;28;20468;-69
2023/07/05 09:47:22;;;;;;;1.97;1.77;;;20.10;99.90;;;;;;5031891;28;20555;-68
2023/07/05 09:49:49;;;;;;;5.57;2.03;;;20.10;99.90;;;;;;5031917;28;20452;-68
2023/07/05 09:52:22;;;;;;;2.30;1.60;;;20.20;99.90;;;;;;5031771;28;20839;-69
2023/07/05 09:54:51;;;;;;;1.93;1.70;;;20.20;99.90;;;;;;5031436;28;20947;-69
2023/07/05 09:57:24;;;;;;;4.20;1.97;;;20.10;99.90;;;;;;5031605;28;21023;-69
2023/07/05 09:59:52;;;;;;;2.40;1.90;;;20.00;99.90;;;;;;5031680;28;20488;-68
2023/07/05 10:02:22;;;;;;;2.30;2.07;;;20.00;99.90;;;;;;5031606;28;20489;-68
2023/07/05 10:04:52;;;;;;;3.80;2.20;;;19.90;99.90;;;;;;5031102;28;20461;-68
2023/07/05 10:07:21;;;;;;;2.30;2.10;;;19.80;99.90;;;;;;5031488;28;20508;-69
2023/07/05 10:10:01;;;;;;;2.33;2.13;;;19.80;99.90;;;;;;5031487;28;20460;-68
2023/07/05 10:12:34;;;;;;;2.30;2.00;;;20.00;99.90;;;;;;5004150;28;20461;-68
2023/07/05 10:15:01;;;;;;;2.23;2.00;;;20.00;99.90;;;;;;5011083;28;20469;-68
2023/07/05 10:17:41;;;;;;;2.90;2.60;;;20.10;99.90;;;;;;5011702;28;20484;-68
2023/07/05 10:20:18;;;;;;;3.10;2.50;;;20.20;99.90;;;;;;5011492;28;20506;-68
2023/07/05 10:22:45;;;;;;;2.70;2.20;;;20.30;99.90;;;;;;5011376;28;20468;-68
2023/07/05 10:25:17;;;;;;;2.60;2.30;;;20.50;99.90;;;;;;5011035;28;20460;-68
2023/07/05 10:27:48;;;;;;;2.87;2.30;;;20.50;99.90;;;;;;5011410;28;20488;-69
2023/07/05 10:30:17;;;;;;;3.10;2.40;;;20.60;99.90;;;;;;5011468;28;20456;-68
2023/07/05 10:32:46;;;;;;;2.93;2.33;;;20.60;99.90;;;;;;5011417;28;20465;-68
2023/07/05 10:35:21;;;;;;;3.13;2.53;;;20.60;99.90;;;;;;5010890;28;20461;-68
2023/07/05 10:37:48;;;;;;;2.77;2.47;;;20.60;99.90;;;;;;5010400;28;20510;-68
2023/07/05 10:40:16;;;;;;;2.43;2.20;;;20.70;99.90;;;;;;5011129;28;21008;-68
2023/07/05 10:42:50;;;;;;;2.47;1.93;;;20.70;99.90;;;;;;5011242;28;20501;-68
2023/07/05 10:45:18;;;;;;;2.30;2.10;;;20.80;99.90;;;;;;5010893;28;20955;-68
2023/07/05 10:47:51;;;;;;;2.17;1.97;;;20.80;99.90;;;;;;5011213;28;20493;-69
2023/07/05 10:50:24;;;;;;;3.47;2.53;;;21.00;99.90;;;;;;5011018;28;20462;-68
2023/07/05 10:52:55;;;;;;;2.30;2.07;;;21.10;99.90;;;;;;5010586;28;20957;-68
2023/07/05 10:55:32;;;;;;;3.40;2.37;;;21.20;99.90;;;;;;5011049;28;20503;-69
2023/07/05 10:58:07;;;;;;;2.80;2.50;;;21.30;99.90;;;;;;5011034;28;20568;-68
2023/07/05 11:00:39;;;;;;;3.07;2.77;;;21.50;99.70;;;;;;5010343;28;20505;-69
2023/07/05 11:03:11;;;;;;;2.50;2.03;;;21.70;99.90;;;;;;5010118;28;20459;-69
2023/07/05 11:05:42;;;;;;;3.03;2.30;;;21.90;99.90;;;;;;5010781;28;20461;-69
2023/07/05 11:08:18;;;;;;;3.07;2.33;;;21.90;99.90;;;;;;5010626;28;20872;-68
2023/07/05 11:10:46;;;;;;;3.13;2.60;;;21.90;99.20;;;;;;5010705;28;20500;-69
2023/07/05 11:13:16;;;;;;;2.30;1.93;;;22.00;99.90;;;;;;5010027;28;20524;-69
2023/07/05 11:15:43;;;;;;;3.60;2.50;;;22.10;98.80;;;;;;5010787;28;20473;-69
2023/07/05 11:18:15;;;;;;;2.83;2.40;;;22.10;98.40;;;;;;5007167;28;20505;-68
2023/07/05 11:20:51;;;;;;;2.60;2.40;;;22.30;98.80;;;;;;5008434;28;20486;-69
2023/07/05 11:24:00;;;;;;;2.70;2.27;;;22.50;96.90;;;;;;5009173;28;20466;-69
2023/07/05 11:26:36;;;;;;;2.60;2.40;;;22.50;96.60;;;;;;4992678;28;20550;-69
2023/07/05 11:29:49;;;;;;;2.67;2.23;;;22.60;97.80;;;;;;5029141;28;20852;-68
2023/07/05 11:32:16;;;;;;;2.60;2.40;;;22.70;97.50;;;;;;5007585;28;20468;-68
2023/07/05 11:34:45;;;;;;;4.03;2.40;;;22.80;97.00;;;;;;5009075;28;20460;-68
2023/07/05 11:37:48;;;;;;;3.60;2.20;;;22.70;95.70;;;;;;5009541;28;20494;-68
2023/07/05 11:40:48;;;;;;;2.70;2.27;;;22.70;96.70;;;;;;5009008;28;20538;-68
2023/07/05 11:43:23;;;;;;;4.13;2.73;;;22.80;96.70;;;;;;4992161;28;20883;-68
2023/07/05 11:45:51;;;;;;;2.47;2.00;;;22.90;96.30;;;;;;5009561;28;20547;-67
2023/07/05 11:48:42;;;;;;;3.10;2.50;;;23.00;97.50;;;;;;5008683;28;20887;-68
2023/07/05 11:51:23;;;;;;;2.80;2.30;;;23.10;97.10;;;;;;5022275;28;21226;-68
2023/07/05 11:53:52;;;;;;;2.00;1.80;;;23.10;97.90;;;;;;5032396;28;20836;-68
2023/07/05 11:56:19;;;;;;;2.50;2.30;;;23.30;95.50;;;;;;5032843;28;20468;-67
2023/07/05 11:58:50;;;;;;;2.13;1.87;;;23.30;94.80;;;;;;5032559;28;20480;-67
2023/07/05 12:01:28;;;;;;;2.00;1.77;;;23.30;94.10;;;;;;5033291;28;20493;-68
2023/07/05 12:03:59;;;;;;;3.40;2.20;;;23.20;91.20;;;;;;5031755;28;20459;-68
2023/07/05 12:06:36;;;;;;;2.60;1.97;;;23.20;94.90;;;;;;5032624;28;20464;-68
2023/07/05 12:09:05;;;;;;;2.07;1.87;;;23.30;93.20;;;;;;5032398;28;20859;-67
2023/07/05 12:11:37;;;;;;;2.17;1.73;;;23.30;92.70;;;;;;5033147;28;20487;-68
2023/07/05 12:14:06;;;;;;;2.23;1.70;;;23.30;94.10;;;;;;5032270;28;20551;-68
2023/07/05 12:16:34;;;;;;;2.87;1.93;;;23.50;95.80;;;;;;5032670;28;20468;-67
2023/07/05 12:19:01;;;;;;;2.60;2.37;;;23.60;96.80;;;;;;5032099;28;20515;-67
2023/07/05 12:21:31;;;;;;;2.33;2.10;;;23.70;93.40;;;;;;5032810;28;20498;-68
2023/07/05 12:23:59;;;;;;;2.93;2.40;;;23.70;92.90;;;;;;5031686;28;20467;-68
2023/07/05 12:26:30;;;;;;;2.27;2.07;;;23.70;92.10;;;;;;5032744;28;20532;-68
2023/07/05 12:28:57;;;;;;;2.30;1.73;;;23.70;92.40;;;;;;5032635;28;20863;-69
2023/07/05 12:31:25;;;;;;;2.10;1.90;;;23.70;93.70;;;;;;5031856;28;20467;-69
2023/07/05 12:33:54;;;;;;;3.00;2.00;;;23.70;92.00;;;;;;5031959;28;20464;-68
2023/07/05 12:36:22;;;;;;;1.90;1.67;;;23.70;93.20;;;;;;5032644;28;20488;-68
2023/07/05 12:38:50;;;;;;;2.27;1.80;;;23.70;91.50;;;;;;5031936;28;20490;-68
2023/07/05 12:41:22;;;;;;;2.17;1.97;;;23.80;92.00;;;;;;5032501;28;20816;-68
2023/07/05 12:43:50;;;;;;;3.57;2.20;;;23.90;92.70;;;;;;5031760;28;20464;-68
2023/07/05 12:46:21;;;;;;;2.33;1.90;;;24.00;93.60;;;;;;5024025;28;20464;-67
2023/07/05 12:48:48;;;;;;;3.07;2.20;;;23.90;90.90;;;;;;5032150;28;20482;-68
2023/07/05 12:51:21;;;;;;;2.33;2.10;;;24.00;92.80;;;;;;5032243;28;20955;-68
2023/07/05 12:53:48;;;;;;;2.40;1.90;;;24.00;92.70;;;;;;5031228;28;20846;-67
2023/07/05 12:56:17;;;;;;;2.47;2.10;;;24.10;91.30;;;;;;5032160;28;20976;-67
2023/07/05 12:58:51;;;;;;;2.00;1.80;;;24.30;94.10;;;;;;5032044;28;20548;-67
2023/07/05 13:01:18;;;;;;;3.53;2.10;;;24.30;95.40;;;;;;5030703;28;21075;-67
2023/07/05 13:03:48;;;;;;;2.67;2.20;;;24.40;91.70;;;;;;5031537;28;20878;-68